Terminal Aerodrome Forecast
Issued by NWS Blacksburg, VA

Current Version | Previous Version | Text Only | Print | Product List | Glossary Off
Versions: 1 2 3 4 5 6 7 8 9 10 11 12 13 14 15 16

000
FTUS41 KRNK 182322
TAFBLF
TAF
KBLF 182322Z 1900/1924 25015KT P6SM SCT140
     FM190300 28015G27KT P6SM -SHRA BKN012
      TEMPO 1905/1907 2SM -SHRA OVC007
     FM190800 28018G30KT P6SM -SHSN OVC010
     FM191800 30015G26KT P6SM BKN008
     FM192100 30015G24KT P6SM BKN015=

USA.gov is the U.S. government's official web portal to all federal, state and local government web resources and services.